sensor_id;sensor_type;location;lat;lon;timestamp;pressure;altitude;pressure_sealevel;temperature;humidity
64628;BME280;59036;50.960;0.314;2022-11-20T00:01:25;99530.12;;;6.09;84.42
64628;BME280;59036;50.960;0.314;2022-11-20T00:03:55;99531.60;;;6.19;83.26
64628;BME280;59036;50.960;0.314;2022-11-20T00:06:24;99526.67;;;6.91;81.46
64628;BME280;59036;50.960;0.314;2022-11-20T00:08:54;99528.41;;;6.34;81.63
64628;BME280;59036;50.960;0.314;2022-11-20T00:11:24;99523.46;;;7.02;81.35
64628;BME280;59036;50.960;0.314;2022-11-20T00:13:53;99521.17;;;7.25;79.51
64628;BME280;59036;50.960;0.314;2022-11-20T00:16:23;99522.01;;;6.28;79.99
64628;BME280;59036;50.960;0.314;2022-11-20T00:18:50;99519.85;;;5.71;83.03
64628;BME280;59036;50.960;0.314;2022-11-20T00:21:20;99514.27;;;7.23;79.75
64628;BME280;59036;50.960;0.314;2022-11-20T00:23:48;99505.78;;;7.29;78.39
64628;BME280;59036;50.960;0.314;2022-11-20T00:26:18;99502.04;;;7.44;76.95
64628;BME280;59036;50.960;0.314;2022-11-20T00:28:49;99501.48;;;7.39;76.34
64628;BME280;59036;50.960;0.314;2022-11-20T00:31:17;99499.79;;;7.11;78.21
64628;BME280;59036;50.960;0.314;2022-11-20T00:33:45;99495.32;;;6.81;78.70
64628;BME280;59036;50.960;0.314;2022-11-20T00:36:14;99490.15;;;6.39;78.85
64628;BME280;59036;50.960;0.314;2022-11-20T00:38:42;99479.93;;;7.39;76.70
64628;BME280;59036;50.960;0.314;2022-11-20T00:41:12;99477.26;;;7.49;76.56
64628;BME280;59036;50.960;0.314;2022-11-20T00:43:39;99474.02;;;7.38;75.53
64628;BME280;59036;50.960;0.314;2022-11-20T00:46:13;99474.00;;;8.37;73.61
64628;BME280;59036;50.960;0.314;2022-11-20T00:48:41;99471.74;;;9.46;70.69
64628;BME280;59036;50.960;0.314;2022-11-20T00:51:08;99468.37;;;9.89;69.36
64628;BME280;59036;50.960;0.314;2022-11-20T00:53:36;99476.87;;;8.91;70.56
64628;BME280;59036;50.960;0.314;2022-11-20T00:56:06;99479.03;;;8.60;71.72
64628;BME280;59036;50.960;0.314;2022-11-20T00:58:36;99473.37;;;9.33;70.20
64628;BME280;59036;50.960;0.314;2022-11-20T01:01:05;99462.02;;;9.87;69.28
64628;BME280;59036;50.960;0.314;2022-11-20T01:03:35;99455.83;;;10.34;68.15
64628;BME280;59036;50.960;0.314;2022-11-20T01:06:05;99454.44;;;10.67;68.00
64628;BME280;59036;50.960;0.314;2022-11-20T01:08:34;99455.79;;;10.79;67.69
64628;BME280;59036;50.960;0.314;2022-11-20T01:11:04;99453.10;;;10.52;67.91
64628;BME280;59036;50.960;0.314;2022-11-20T01:13:32;99444.50;;;10.57;68.57
64628;BME280;59036;50.960;0.314;2022-11-20T01:16:02;99441.39;;;10.63;67.86
64628;BME280;59036;50.960;0.314;2022-11-20T01:18:30;99441.76;;;10.82;67.47
64628;BME280;59036;50.960;0.314;2022-11-20T01:21:01;99438.15;;;11.09;67.50
64628;BME280;59036;50.960;0.314;2022-11-20T01:23:31;99432.34;;;10.55;68.57
64628;BME280;59036;50.960;0.314;2022-11-20T01:26:01;99431.69;;;10.60;68.52
64628;BME280;59036;50.960;0.314;2022-11-20T01:28:29;99425.29;;;10.45;68.85
64628;BME280;59036;50.960;0.314;2022-11-20T01:30:57;99424.87;;;10.38;69.14
64628;BME280;59036;50.960;0.314;2022-11-20T01:33:24;99421.73;;;10.18;69.05
64628;BME280;59036;50.960;0.314;2022-11-20T01:35:52;99420.30;;;9.29;68.69
64628;BME280;59036;50.960;0.314;2022-11-20T01:38:20;99419.91;;;9.14;70.47
64628;BME280;59036;50.960;0.314;2022-11-20T01:40:54;99423.08;;;8.14;72.58
64628;BME280;59036;50.960;0.314;2022-11-20T01:43:21;99423.71;;;8.14;73.84
64628;BME280;59036;50.960;0.314;2022-11-20T01:45:58;99419.06;;;7.88;75.53
64628;BME280;59036;50.960;0.314;2022-11-20T01:48:31;99417.15;;;7.59;75.72
64628;BME280;59036;50.960;0.314;2022-11-20T01:51:00;99413.44;;;8.30;75.23
64628;BME280;59036;50.960;0.314;2022-11-20T01:53:33;99404.48;;;7.73;75.95
64628;BME280;59036;50.960;0.314;2022-11-20T01:56:05;99401.41;;;9.41;73.73
64628;BME280;59036;50.960;0.314;2022-11-20T01:58:38;99397.60;;;9.98;72.27
64628;BME280;59036;50.960;0.314;2022-11-20T02:01:06;99395.62;;;10.25;72.39
64628;BME280;59036;50.960;0.314;2022-11-20T02:03:34;99391.26;;;9.61;71.18
64628;BME280;59036;50.960;0.314;2022-11-20T02:06:07;99391.39;;;9.71;71.55
64628;BME280;59036;50.960;0.314;2022-11-20T02:08:37;99387.55;;;8.87;72.51
64628;BME280;59036;50.960;0.314;2022-11-20T02:11:06;99390.91;;;7.81;76.13
64628;BME280;59036;50.960;0.314;2022-11-20T02:13:34;99388.84;;;7.75;74.87
64628;BME280;59036;50.960;0.314;2022-11-20T02:16:02;99387.01;;;8.10;74.27
64628;BME280;59036;50.960;0.314;2022-11-20T02:18:31;99382.54;;;8.43;73.51
64628;BME280;59036;50.960;0.314;2022-11-20T02:21:02;99379.60;;;7.36;72.19
64628;BME280;59036;50.960;0.314;2022-11-20T02:23:37;99377.88;;;7.10;74.88
64628;BME280;59036;50.960;0.314;2022-11-20T02:26:09;99374.91;;;6.51;78.68
64628;BME280;59036;50.960;0.314;2022-11-20T02:28:38;99370.71;;;6.28;81.02
64628;BME280;59036;50.960;0.314;2022-11-20T02:31:05;99370.31;;;6.14;81.96
64628;BME280;59036;50.960;0.314;2022-11-20T02:33:32;99368.22;;;5.88;83.54
64628;BME280;59036;50.960;0.314;2022-11-20T02:35:59;99364.41;;;5.59;86.66
64628;BME280;59036;50.960;0.314;2022-11-20T02:38:26;99365.29;;;5.69;86.79
64628;BME280;59036;50.960;0.314;2022-11-20T02:40:53;99364.14;;;5.93;86.81
64628;BME280;59036;50.960;0.314;2022-11-20T02:43:21;99360.95;;;5.02;89.74
64628;BME280;59036;50.960;0.314;2022-11-20T02:45:48;99356.92;;;4.33;93.01
64628;BME280;59036;50.960;0.314;2022-11-20T02:48:15;99353.05;;;4.38;95.89
64628;BME280;59036;50.960;0.314;2022-11-20T02:50:42;99353.73;;;4.30;97.94
64628;BME280;59036;50.960;0.314;2022-11-20T02:53:09;99352.41;;;4.67;99.60
64628;BME280;59036;50.960;0.314;2022-11-20T02:55:36;99347.18;;;4.23;100.00
64628;BME280;59036;50.960;0.314;2022-11-20T02:58:03;99341.12;;;4.37;100.00
64628;BME280;59036;50.960;0.314;2022-11-20T03:00:31;99333.41;;;4.50;100.00
64628;BME280;59036;50.960;0.314;2022-11-20T03:02:58;99332.49;;;4.05;100.00
64628;BME280;59036;50.960;0.314;2022-11-20T03:05:25;99332.58;;;3.97;100.00
64628;BME280;59036;50.960;0.314;2022-11-20T03:07:52;99330.89;;;4.22;100.00
64628;BME280;59036;50.960;0.314;2022-11-20T03:10:19;99328.01;;;4.26;100.00
64628;BME280;59036;50.960;0.314;2022-11-20T03:12:46;99319.22;;;4.52;100.00
64628;BME280;59036;50.960;0.314;2022-11-20T03:15:14;99316.09;;;4.53;100.00
64628;BME280;59036;50.960;0.314;2022-11-20T03:17:41;99304.12;;;4.70;100.00
64628;BME280;59036;50.960;0.314;2022-11-20T03:20:09;99301.43;;;4.87;100.00
64628;BME280;59036;50.960;0.314;2022-11-20T03:22:36;99304.00;;;4.40;100.00
64628;BME280;59036;50.960;0.314;2022-11-20T03:25:04;99299.17;;;4.49;100.00
64628;BME280;59036;50.960;0.314;2022-11-20T03:27:33;99293.44;;;4.80;100.00
64628;BME280;59036;50.960;0.314;2022-11-20T03:30:00;99289.94;;;4.55;100.00
64628;BME280;59036;50.960;0.314;2022-11-20T03:32:27;99287.16;;;4.49;100.00
64628;BME280;59036;50.960;0.314;2022-11-20T03:34:54;99290.58;;;4.39;100.00
64628;BME280;59036;50.960;0.314;2022-11-20T03:37:21;99288.53;;;5.04;100.00
64628;BME280;59036;50.960;0.314;2022-11-20T03:39:48;99283.24;;;5.77;100.00
64628;BME280;59036;50.960;0.314;2022-11-20T03:42:15;99279.40;;;5.48;100.00
64628;BME280;59036;50.960;0.314;2022-11-20T03:44:42;99275.66;;;5.41;100.00
64628;BME280;59036;50.960;0.314;2022-11-20T03:47:09;99269.54;;;5.13;100.00
64628;BME280;59036;50.960;0.314;2022-11-20T03:49:36;99264.57;;;5.08;100.00
64628;BME280;59036;50.960;0.314;2022-11-20T03:52:04;99263.27;;;5.06;100.00
64628;BME280;59036;50.960;0.314;2022-11-20T03:54:31;99257.52;;;5.17;100.00
64628;BME280;59036;50.960;0.314;2022-11-20T03:56:58;99251.01;;;4.89;100.00
64628;BME280;59036;50.960;0.314;2022-11-20T03:59:25;99246.25;;;5.10;100.00
64628;BME280;59036;50.960;0.314;2022-11-20T04:01:52;99243.41;;;5.22;100.00
64628;BME280;59036;50.960;0.314;2022-11-20T04:04:19;99240.56;;;5.28;100.00
64628;BME280;59036;50.960;0.314;2022-11-20T04:06:46;99238.35;;;5.45;100.00
64628;BME280;59036;50.960;0.314;2022-11-20T04:09:13;99240.10;;;5.89;100.00
64628;BME280;59036;50.960;0.314;2022-11-20T04:11:41;99240.37;;;5.77;100.00
64628;BME280;59036;50.960;0.314;2022-11-20T04:14:13;99235.43;;;6.20;100.00
64628;BME280;59036;50.960;0.314;2022-11-20T04:16:40;99234.14;;;5.94;100.00
64628;BME280;59036;50.960;0.314;2022-11-20T04:19:11;99228.48;;;6.66;100.00
64628;BME280;59036;50.960;0.314;2022-11-20T04:21:38;99230.39;;;6.08;100.00
64628;BME280;59036;50.960;0.314;2022-11-20T04:24:06;99228.62;;;5.95;100.00
64628;BME280;59036;50.960;0.314;2022-11-20T04:26:34;99230.09;;;5.62;100.00
64628;BME280;59036;50.960;0.314;2022-11-20T04:29:02;99223.70;;;5.94;100.00
64628;BME280;59036;50.960;0.314;2022-11-20T04:31:31;99224.36;;;5.52;100.00
64628;BME280;59036;50.960;0.314;2022-11-20T04:33:59;99221.08;;;5.29;100.00
64628;BME280;59036;50.960;0.314;2022-11-20T04:36:28;99217.48;;;5.41;100.00
64628;BME280;59036;50.960;0.314;2022-11-20T04:38:57;99215.98;;;4.45;100.00
64628;BME280;59036;50.960;0.314;2022-11-20T04:41:25;99216.21;;;5.90;100.00
64628;BME280;59036;50.960;0.314;2022-11-20T04:43:54;99214.10;;;5.59;100.00
64628;BME280;59036;50.960;0.314;2022-11-20T04:46:22;99215.40;;;5.67;100.00
64628;BME280;59036;50.960;0.314;2022-11-20T04:48:49;99205.90;;;6.32;100.00
64628;BME280;59036;50.960;0.314;2022-11-20T04:51:16;99203.63;;;6.91;100.00
64628;BME280;59036;50.960;0.314;2022-11-20T04:53:43;99199.17;;;7.06;100.00
64628;BME280;59036;50.960;0.314;2022-11-20T04:56:12;99183.09;;;7.48;100.00
64628;BME280;59036;50.960;0.314;2022-11-20T04:58:40;99168.94;;;9.06;99.26
64628;BME280;59036;50.960;0.314;2022-11-20T05:01:10;99167.90;;;8.70;97.02
64628;BME280;59036;50.960;0.314;2022-11-20T05:03:37;99170.60;;;9.63;94.44
64628;BME280;59036;50.960;0.314;2022-11-20T05:06:05;99172.10;;;9.49;94.54
64628;BME280;59036;50.960;0.314;2022-11-20T05:08:34;99173.84;;;9.46;93.33
64628;BME280;59036;50.960;0.314;2022-11-20T05:11:02;99171.82;;;8.07;98.27
64628;BME280;59036;50.960;0.314;2022-11-20T05:13:30;99168.50;;;8.85;97.36
64628;BME280;59036;50.960;0.314;2022-11-20T05:16:01;99166.95;;;10.35;92.06
64628;BME280;59036;50.960;0.314;2022-11-20T05:18:28;99169.91;;;10.23;89.78
64628;BME280;59036;50.960;0.314;2022-11-20T05:20:55;99160.64;;;9.60;91.94
64628;BME280;59036;50.960;0.314;2022-11-20T05:23:23;99154.37;;;8.32;97.36
64628;BME280;59036;50.960;0.314;2022-11-20T05:25:52;99151.03;;;8.33;98.36
64628;BME280;59036;50.960;0.314;2022-11-20T05:28:20;99151.59;;;8.12;99.10
64628;BME280;59036;50.960;0.314;2022-11-20T05:30:47;99150.22;;;7.89;99.96
64628;BME280;59036;50.960;0.314;2022-11-20T05:33:15;99143.97;;;7.58;100.00
64628;BME280;59036;50.960;0.314;2022-11-20T05:35:42;99142.65;;;7.54;100.00
64628;BME280;59036;50.960;0.314;2022-11-20T05:38:09;99140.76;;;6.94;100.00
64628;BME280;59036;50.960;0.314;2022-11-20T05:40:36;99143.21;;;5.58;100.00
64628;BME280;59036;50.960;0.314;2022-11-20T05:43:04;99137.63;;;5.97;100.00
64628;BME280;59036;50.960;0.314;2022-11-20T05:45:31;99137.30;;;6.62;100.00
64628;BME280;59036;50.960;0.314;2022-11-20T05:47:59;99137.32;;;6.67;100.00
64628;BME280;59036;50.960;0.314;2022-11-20T05:50:27;99127.35;;;6.33;100.00
64628;BME280;59036;50.960;0.314;2022-11-20T05:52:54;99124.33;;;5.78;100.00
64628;BME280;59036;50.960;0.314;2022-11-20T05:55:21;99119.23;;;5.43;100.00
64628;BME280;59036;50.960;0.314;2022-11-20T05:57:49;99119.51;;;5.59;100.00
64628;BME280;59036;50.960;0.314;2022-11-20T06:00:18;99118.28;;;5.25;100.00
64628;BME280;59036;50.960;0.314;2022-11-20T06:02:45;99114.65;;;5.17;100.00
64628;BME280;59036;50.960;0.314;2022-11-20T06:05:12;99110.69;;;5.22;100.00
64628;BME280;59036;50.960;0.314;2022-11-20T06:07:39;99108.49;;;4.87;100.00
64628;BME280;59036;50.960;0.314;2022-11-20T06:10:07;99109.43;;;5.02;100.00
64628;BME280;59036;50.960;0.314;2022-11-20T06:12:34;99112.70;;;5.15;100.00
64628;BME280;59036;50.960;0.314;2022-11-20T06:15:01;99110.38;;;4.96;100.00
64628;BME280;59036;50.960;0.314;2022-11-20T06:17:29;99108.82;;;5.07;100.00
64628;BME280;59036;50.960;0.314;2022-11-20T06:19:56;99107.00;;;5.43;100.00
64628;BME280;59036;50.960;0.314;2022-11-20T06:22:23;99099.50;;;5.28;100.00
64628;BME280;59036;50.960;0.314;2022-11-20T06:24:50;99096.71;;;5.02;100.00
64628;BME280;59036;50.960;0.314;2022-11-20T06:27:17;99096.09;;;4.62;100.00
64628;BME280;59036;50.960;0.314;2022-11-20T06:29:44;99094.22;;;4.53;100.00
64628;BME280;59036;50.960;0.314;2022-11-20T06:32:12;99092.59;;;4.65;100.00
64628;BME280;59036;50.960;0.314;2022-11-20T06:34:38;99090.72;;;4.93;100.00
64628;BME280;59036;50.960;0.314;2022-11-20T06:37:06;99086.47;;;5.25;100.00
64628;BME280;59036;50.960;0.314;2022-11-20T06:39:33;99084.06;;;4.75;100.00
64628;BME280;59036;50.960;0.314;2022-11-20T06:42:00;99082.14;;;4.56;100.00
64628;BME280;59036;50.960;0.314;2022-11-20T06:44:27;99079.64;;;4.36;100.00
64628;BME280;59036;50.960;0.314;2022-11-20T06:46:54;99078.26;;;4.51;100.00
64628;BME280;59036;50.960;0.314;2022-11-20T06:49:21;99071.23;;;4.57;100.00
64628;BME280;59036;50.960;0.314;2022-11-20T06:51:49;99071.06;;;4.84;100.00
64628;BME280;59036;50.960;0.314;2022-11-20T06:54:16;99067.78;;;4.99;100.00
64628;BME280;59036;50.960;0.314;2022-11-20T06:56:46;99067.11;;;4.80;100.00
64628;BME280;59036;50.960;0.314;2022-11-20T06:59:14;99056.38;;;4.86;100.00
64628;BME280;59036;50.960;0.314;2022-11-20T07:01:41;99059.20;;;4.88;100.00
64628;BME280;59036;50.960;0.314;2022-11-20T07:04:08;99053.86;;;5.14;100.00
64628;BME280;59036;50.960;0.314;2022-11-20T07:06:36;99057.25;;;5.20;100.00
64628;BME280;59036;50.960;0.314;2022-11-20T07:09:03;99046.00;;;4.96;100.00
64628;BME280;59036;50.960;0.314;2022-11-20T07:11:30;99051.21;;;5.39;100.00
64628;BME280;59036;50.960;0.314;2022-11-20T07:13:57;99034.64;;;5.56;100.00
64628;BME280;59036;50.960;0.314;2022-11-20T07:16:24;99024.73;;;5.33;100.00
64628;BME280;59036;50.960;0.314;2022-11-20T07:18:51;99024.00;;;5.13;100.00
64628;BME280;59036;50.960;0.314;2022-11-20T07:21:18;99022.66;;;5.48;100.00
64628;BME280;59036;50.960;0.314;2022-11-20T07:23:46;99013.60;;;5.26;100.00
64628;BME280;59036;50.960;0.314;2022-11-20T07:26:13;99011.41;;;5.39;100.00
64628;BME280;59036;50.960;0.314;2022-11-20T07:28:44;99008.34;;;5.24;100.00
64628;BME280;59036;50.960;0.314;2022-11-20T07:31:11;99011.67;;;5.29;100.00
64628;BME280;59036;50.960;0.314;2022-11-20T07:33:39;99006.29;;;5.19;100.00
64628;BME280;59036;50.960;0.314;2022-11-20T07:36:06;99002.20;;;5.31;100.00
64628;BME280;59036;50.960;0.314;2022-11-20T07:38:34;98992.72;;;5.30;100.00
64628;BME280;59036;50.960;0.314;2022-11-20T07:41:01;98988.37;;;5.36;100.00
64628;BME280;59036;50.960;0.314;2022-11-20T07:43:29;98982.42;;;5.32;100.00
64628;BME280;59036;50.960;0.314;2022-11-20T07:45:56;98971.10;;;5.38;100.00
64628;BME280;59036;50.960;0.314;2022-11-20T07:48:24;98960.40;;;5.30;100.00
64628;BME280;59036;50.960;0.314;2022-11-20T07:50:53;98960.69;;;5.48;100.00
64628;BME280;59036;50.960;0.314;2022-11-20T07:53:21;98943.51;;;5.52;100.00
64628;BME280;59036;50.960;0.314;2022-11-20T07:55:59;98947.33;;;5.42;100.00
64628;BME280;59036;50.960;0.314;2022-11-20T07:58:26;98946.23;;;5.58;100.00
64628;BME280;59036;50.960;0.314;2022-11-20T08:00:55;98943.64;;;5.28;100.00
64628;BME280;59036;50.960;0.314;2022-11-20T08:03:22;98950.87;;;5.47;100.00
64628;BME280;59036;50.960;0.314;2022-11-20T08:05:49;98939.36;;;5.80;100.00
64628;BME280;59036;50.960;0.314;2022-11-20T08:08:16;98938.81;;;6.03;100.00
64628;BME280;59036;50.960;0.314;2022-11-20T08:10:43;98914.17;;;5.85;100.00
64628;BME280;59036;50.960;0.314;2022-11-20T08:13:10;98934.59;;;6.14;100.00
64628;BME280;59036;50.960;0.314;2022-11-20T08:15:38;98928.38;;;5.99;100.00
64628;BME280;59036;50.960;0.314;2022-11-20T08:18:07;98920.38;;;6.37;100.00
64628;BME280;59036;50.960;0.314;2022-11-20T08:20:35;98923.84;;;6.27;100.00
64628;BME280;59036;50.960;0.314;2022-11-20T08:23:04;98883.12;;;6.19;100.00
64628;BME280;59036;50.960;0.314;2022-11-20T08:25:33;98908.33;;;6.03;100.00
64628;BME280;59036;50.960;0.314;2022-11-20T08:28:05;98908.37;;;6.61;100.00
64628;BME280;59036;50.960;0.314;2022-11-20T08:30:33;98910.98;;;6.50;100.00
64628;BME280;59036;50.960;0.314;2022-11-20T08:33:02;98902.30;;;6.49;100.00
64628;BME280;59036;50.960;0.314;2022-11-20T08:35:33;98899.72;;;6.31;100.00
64628;BME280;59036;50.960;0.314;2022-11-20T08:38:00;98910.28;;;6.84;100.00
64628;BME280;59036;50.960;0.314;2022-11-20T08:40:27;98910.11;;;7.11;100.00
64628;BME280;59036;50.960;0.314;2022-11-20T08:42:54;98907.47;;;7.43;100.00
64628;BME280;59036;50.960;0.314;2022-11-20T08:45:21;98898.34;;;8.32;100.00
64628;BME280;59036;50.960;0.314;2022-11-20T08:47:48;98886.59;;;7.28;100.00
64628;BME280;59036;50.960;0.314;2022-11-20T08:50:17;98919.30;;;6.96;100.00
64628;BME280;59036;50.960;0.314;2022-11-20T08:52:44;98911.83;;;7.06;100.00
64628;BME280;59036;50.960;0.314;2022-11-20T08:55:11;98931.57;;;6.62;100.00
64628;BME280;59036;50.960;0.314;2022-11-20T08:57:38;98937.03;;;6.10;100.00
64628;BME280;59036;50.960;0.314;2022-11-20T09:00:07;98946.98;;;6.13;100.00
64628;BME280;59036;50.960;0.314;2022-11-20T09:02:34;98951.56;;;6.46;100.00
64628;BME280;59036;50.960;0.314;2022-11-20T09:05:02;98968.17;;;6.08;100.00
64628;BME280;59036;50.960;0.314;2022-11-20T09:07:29;98970.32;;;6.13;100.00
64628;BME280;59036;50.960;0.314;2022-11-20T09:09:56;98970.28;;;6.74;100.00
64628;BME280;59036;50.960;0.314;2022-11-20T09:12:24;98973.52;;;6.40;100.00
64628;BME280;59036;50.960;0.314;2022-11-20T09:14:51;98992.33;;;6.13;100.00
64628;BME280;59036;50.960;0.314;2022-11-20T09:17:18;98997.27;;;5.88;100.00
64628;BME280;59036;50.960;0.314;2022-11-20T09:19:45;99002.70;;;6.10;100.00
64628;BME280;59036;50.960;0.314;2022-11-20T09:22:12;99004.28;;;6.13;100.00
64628;BME280;59036;50.960;0.314;2022-11-20T09:24:39;99017.00;;;6.17;100.00
64628;BME280;59036;50.960;0.314;2022-11-20T09:27:06;99022.53;;;5.82;100.00
64628;BME280;59036;50.960;0.314;2022-11-20T09:29:33;99021.44;;;6.26;100.00
64628;BME280;59036;50.960;0.314;2022-11-20T09:32:03;99024.82;;;6.66;100.00
64628;BME280;59036;50.960;0.314;2022-11-20T09:34:30;99029.28;;;6.00;100.00
64628;BME280;59036;50.960;0.314;2022-11-20T09:36:57;99035.64;;;6.15;100.00
64628;BME280;59036;50.960;0.314;2022-11-20T09:39:24;99038.50;;;5.88;100.00
64628;BME280;59036;50.960;0.314;2022-11-20T09:42:05;99039.75;;;6.02;100.00
64628;BME280;59036;50.960;0.314;2022-11-20T09:44:49;99040.08;;;5.80;100.00
64628;BME280;59036;50.960;0.314;2022-11-20T09:47:24;99043.03;;;6.03;100.00
64628;BME280;59036;50.960;0.314;2022-11-20T09:50:07;99048.71;;;6.38;100.00
64628;BME280;59036;50.960;0.314;2022-11-20T09:52:49;99053.68;;;5.77;100.00
64628;BME280;59036;50.960;0.314;2022-11-20T09:55:22;99056.73;;;6.17;100.00
64628;BME280;59036;50.960;0.314;2022-11-20T09:57:51;99053.88;;;6.18;100.00
64628;BME280;59036;50.960;0.314;2022-11-20T10:00:19;99062.38;;;6.34;100.00
64628;BME280;59036;50.960;0.314;2022-11-20T10:02:50;99053.43;;;6.19;100.00
64628;BME280;59036;50.960;0.314;2022-11-20T10:05:22;99058.59;;;5.88;100.00
64628;BME280;59036;50.960;0.314;2022-11-20T10:07:59;99064.80;;;6.13;100.00
64628;BME280;59036;50.960;0.314;2022-11-20T10:10:35;99070.40;;;5.77;100.00
64628;BME280;59036;50.960;0.314;2022-11-20T10:13:17;99062.22;;;6.17;100.00
64628;BME280;59036;50.960;0.314;2022-11-20T10:15:55;99060.70;;;6.36;100.00
64628;BME280;59036;50.960;0.314;2022-11-20T10:18:39;99052.82;;;6.19;100.00
64628;BME280;59036;50.960;0.314;2022-11-20T10:21:15;99050.41;;;6.42;100.00
64628;BME280;59036;50.960;0.314;2022-11-20T10:23:59;99048.95;;;6.26;100.00
64628;BME280;59036;50.960;0.314;2022-11-20T10:26:34;99046.05;;;6.98;100.00
64628;BME280;59036;50.960;0.314;2022-11-20T10:29:11;99042.50;;;6.40;100.00
64628;BME280;59036;50.960;0.314;2022-11-20T10:31:41;99038.97;;;6.32;100.00
64628;BME280;59036;50.960;0.314;2022-11-20T10:34:18;99037.52;;;6.48;100.00
64628;BME280;59036;50.960;0.314;2022-11-20T10:36:50;99037.28;;;6.50;100.00
64628;BME280;59036;50.960;0.314;2022-11-20T10:39:25;99038.87;;;6.51;100.00
64628;BME280;59036;50.960;0.314;2022-11-20T10:41:56;99039.89;;;7.10;100.00
64628;BME280;59036;50.960;0.314;2022-11-20T10:44:27;99041.83;;;6.94;100.00
64628;BME280;59036;50.960;0.314;2022-11-20T10:46:55;99039.02;;;6.79;100.00
64628;BME280;59036;50.960;0.314;2022-11-20T10:49:22;99042.55;;;6.95;100.00
64628;BME280;59036;50.960;0.314;2022-11-20T10:51:59;99049.46;;;6.35;100.00
64628;BME280;59036;50.960;0.314;2022-11-20T10:54:35;99054.90;;;6.88;100.00
64628;BME280;59036;50.960;0.314;2022-11-20T10:57:13;99060.81;;;6.87;100.00
64628;BME280;59036;50.960;0.314;2022-11-20T10:59:55;99054.00;;;6.73;100.00
64628;BME280;59036;50.960;0.314;2022-11-20T11:02:33;99046.64;;;6.55;100.00
64628;BME280;59036;50.960;0.314;2022-11-20T11:05:13;99044.29;;;6.94;100.00
64628;BME280;59036;50.960;0.314;2022-11-20T11:07:45;99045.65;;;6.99;100.00
64628;BME280;59036;50.960;0.314;2022-11-20T11:10:17;99047.38;;;8.12;100.00
64628;BME280;59036;50.960;0.314;2022-11-20T11:12:46;99047.47;;;7.68;100.00
64628;BME280;59036;50.960;0.314;2022-11-20T11:15:25;99050.12;;;7.37;100.00
64628;BME280;59036;50.960;0.314;2022-11-20T11:17:53;99052.59;;;7.13;100.00
64628;BME280;59036;50.960;0.314;2022-11-20T11:20:22;99060.95;;;6.80;100.00
64628;BME280;59036;50.960;0.314;2022-11-20T11:22:51;99066.08;;;7.32;100.00
64628;BME280;59036;50.960;0.314;2022-11-20T11:25:22;99062.56;;;6.91;100.00
64628;BME280;59036;50.960;0.314;2022-11-20T11:27:50;99065.88;;;7.16;100.00
64628;BME280;59036;50.960;0.314;2022-11-20T11:30:19;99069.48;;;7.06;100.00
64628;BME280;59036;50.960;0.314;2022-11-20T11:32:47;99069.20;;;7.39;100.00
64628;BME280;59036;50.960;0.314;2022-11-20T11:35:29;99076.55;;;7.41;100.00
64628;BME280;59036;50.960;0.314;2022-11-20T11:38:04;99068.40;;;7.81;100.00
64628;BME280;59036;50.960;0.314;2022-11-20T11:40:33;99066.19;;;8.11;100.00
64628;BME280;59036;50.960;0.314;2022-11-20T11:43:04;99063.39;;;7.84;100.00
64628;BME280;59036;50.960;0.314;2022-11-20T11:45:31;99059.72;;;8.00;100.00
64628;BME280;59036;50.960;0.314;2022-11-20T11:48:02;99060.79;;;8.16;100.00
64628;BME280;59036;50.960;0.314;2022-11-20T11:50:30;99061.58;;;8.03;100.00
64628;BME280;59036;50.960;0.314;2022-11-20T11:53:08;99063.84;;;8.61;100.00
64628;BME280;59036;50.960;0.314;2022-11-20T11:55:43;99061.94;;;8.29;99.65
64628;BME280;59036;50.960;0.314;2022-11-20T11:58:17;99068.30;;;8.92;98.87
64628;BME280;59036;50.960;0.314;2022-11-20T12:00:54;99073.66;;;8.79;97.90
64628;BME280;59036;50.960;0.314;2022-11-20T12:03:27;99071.18;;;8.46;98.70
64628;BME280;59036;50.960;0.314;2022-11-20T12:05:58;99073.35;;;7.79;98.94
64628;BME280;59036;50.960;0.314;2022-11-20T12:08:31;99073.16;;;8.51;97.85
64628;BME280;59036;50.960;0.314;2022-11-20T12:11:04;99073.76;;;8.82;96.89
64628;BME280;59036;50.960;0.314;2022-11-20T12:13:40;99071.25;;;8.19;98.43
64628;BME280;59036;50.960;0.314;2022-11-20T12:16:13;99076.32;;;7.59;99.40
64628;BME280;59036;50.960;0.314;2022-11-20T12:18:41;99078.96;;;7.94;98.91
64628;BME280;59036;50.960;0.314;2022-11-20T12:21:19;99073.55;;;8.31;97.72
64628;BME280;59036;50.960;0.314;2022-11-20T12:23:56;99070.45;;;8.01;97.99
64628;BME280;59036;50.960;0.314;2022-11-20T12:26:42;99070.19;;;7.97;96.39
64628;BME280;59036;50.960;0.314;2022-11-20T12:29:17;99076.42;;;8.39;95.98
64628;BME280;59036;50.960;0.314;2022-11-20T12:32:20;99071.97;;;8.82;95.29
64628;BME280;59036;50.960;0.314;2022-11-20T12:34:59;99069.15;;;8.31;93.59
64628;BME280;59036;50.960;0.314;2022-11-20T12:37:36;99067.68;;;7.88;95.61
64628;BME280;59036;50.960;0.314;2022-11-20T12:40:20;99071.95;;;8.60;95.44
64628;BME280;59036;50.960;0.314;2022-11-20T12:42:57;99065.72;;;8.23;94.56
64628;BME280;59036;50.960;0.314;2022-11-20T12:45:48;99068.02;;;8.29;93.52
64628;BME280;59036;50.960;0.314;2022-11-20T12:48:25;99071.73;;;8.54;94.17
64628;BME280;59036;50.960;0.314;2022-11-20T12:51:11;99069.75;;;7.91;94.70
64628;BME280;59036;50.960;0.314;2022-11-20T12:53:52;99059.33;;;8.18;94.27
64628;BME280;59036;50.960;0.314;2022-11-20T12:56:29;99059.16;;;8.05;93.41
64628;BME280;59036;50.960;0.314;2022-11-20T12:59:14;99065.91;;;8.01;92.78
64628;BME280;59036;50.960;0.314;2022-11-20T13:01:51;99057.03;;;7.80;93.62
64628;BME280;59036;50.960;0.314;2022-11-20T13:04:32;99052.23;;;7.96;93.17
64628;BME280;59036;50.960;0.314;2022-11-20T13:07:08;99052.06;;;7.91;90.93
64628;BME280;59036;50.960;0.314;2022-11-20T13:09:40;99057.89;;;8.20;90.56
64628;BME280;59036;50.960;0.314;2022-11-20T13:12:20;99062.22;;;8.17;89.56
64628;BME280;59036;50.960;0.314;2022-11-20T13:14:55;99064.65;;;7.89;90.33
64628;BME280;59036;50.960;0.314;2022-11-20T13:17:33;99070.67;;;7.82;93.22